createdAt,value
2023-05-04T00:03:44.553Z,14.64
2023-05-04T00:08:46.245Z,14.56
2023-05-04T00:13:47.794Z,14.48
2023-05-04T00:18:49.275Z,14.43
2023-05-04T00:23:50.820Z,14.37
2023-05-04T00:28:52.318Z,14.31
2023-05-04T00:33:53.879Z,14.25
2023-05-04T00:38:55.497Z,14.20
2023-05-04T00:43:57.092Z,14.13
2023-05-04T00:49:04.356Z,14.09
2023-05-04T00:54:08.346Z,14.03
2023-05-04T00:59:09.955Z,13.98
2023-05-04T01:04:12.184Z,13.95
2023-05-04T01:09:52.365Z,13.90
2023-05-04T01:14:56.320Z,13.86
2023-05-04T01:19:57.889Z,13.84
2023-05-04T01:25:00.199Z,13.80
2023-05-04T01:30:08.964Z,13.77
2023-05-04T01:35:11.835Z,13.71
2023-05-04T01:40:13.382Z,13.66
2023-05-04T01:45:14.900Z,13.62
2023-05-04T01:50:16.544Z,13.59
2023-05-04T01:55:18.201Z,13.55
2023-05-04T02:00:19.910Z,13.50
2023-05-04T02:05:21.594Z,13.49
2023-05-04T02:10:23.701Z,13.45
2023-05-04T02:15:25.220Z,13.39
2023-05-04T02:20:26.790Z,13.35
2023-05-04T02:25:28.422Z,13.31
2023-05-04T02:30:30.007Z,13.29
2023-05-04T02:35:32.903Z,13.25
2023-05-04T02:40:34.450Z,13.21
2023-05-04T02:45:36.488Z,13.18
2023-05-04T02:50:38.067Z,13.15
2023-05-04T02:55:39.589Z,13.12
2023-05-04T03:00:41.249Z,13.08
2023-05-04T03:05:42.874Z,13.04
2023-05-04T03:10:45.677Z,12.99
2023-05-04T03:15:47.189Z,12.95
2023-05-04T03:20:48.829Z,12.91
2023-05-04T03:25:53.916Z,12.87
2023-05-04T03:30:55.811Z,12.82
2023-05-04T03:35:57.628Z,12.76
2023-05-04T03:40:59.194Z,12.73
2023-05-04T03:46:00.861Z,12.68
2023-05-04T03:51:02.752Z,12.63
2023-05-04T03:56:04.504Z,12.59
2023-05-04T04:01:07.117Z,12.55
2023-05-04T04:06:10.478Z,12.53
2023-05-04T04:11:12.823Z,12.52
2023-05-04T04:16:14.394Z,12.50
2023-05-04T04:21:15.968Z,12.51
2023-05-04T04:26:17.554Z,12.53
2023-05-04T04:31:19.824Z,12.55
2023-05-04T04:36:21.385Z,12.56
2023-05-04T04:41:23.211Z,12.59
2023-05-04T04:46:24.754Z,12.63
2023-05-04T04:51:26.494Z,12.66
2023-05-04T04:56:28.171Z,12.72
2023-05-04T05:01:29.952Z,12.75
2023-05-04T05:06:31.638Z,12.82
2023-05-04T05:11:33.230Z,12.86
2023-05-04T05:16:35.060Z,12.90
2023-05-04T05:21:36.870Z,12.94
2023-05-04T05:26:39.100Z,13.00
2023-05-04T05:31:41.344Z,13.09
2023-05-04T05:36:45.378Z,13.16
2023-05-04T05:41:47.559Z,13.25
2023-05-04T05:46:49.147Z,13.31
2023-05-04T05:51:54.716Z,13.39
2023-05-04T05:56:58.863Z,13.43
2023-05-04T06:02:02.130Z,13.51
2023-05-04T06:07:04.786Z,13.56
2023-05-04T06:12:12.296Z,13.63
2023-05-04T06:17:16.248Z,13.72
2023-05-04T06:22:18.989Z,13.80
2023-05-04T06:27:24.427Z,13.90
2023-05-04T06:32:31.606Z,13.99
2023-05-04T06:37:37.907Z,14.12
2023-05-04T06:42:46.327Z,14.21
2023-05-04T06:47:56.661Z,14.31
2023-05-04T06:53:15.575Z,14.44
2023-05-04T06:58:23.829Z,14.58
2023-05-04T07:03:32.597Z,14.71
2023-05-04T07:08:40.777Z,14.84
2023-05-04T07:13:48.530Z,14.91
2023-05-04T07:18:55.633Z,15.07
2023-05-04T07:24:02.915Z,15.22
2023-05-04T07:29:10.215Z,15.37
2023-05-04T07:34:19.262Z,15.49
2023-05-04T07:39:28.509Z,15.59
2023-05-04T07:44:36.943Z,15.70
2023-05-04T07:49:44.732Z,15.82
2023-05-04T07:54:55.496Z,15.94
2023-05-04T08:00:05.329Z,16.07
2023-05-04T08:05:22.730Z,16.19
2023-05-04T08:10:30.929Z,16.33
2023-05-04T08:15:39.263Z,16.46
2023-05-04T08:20:47.727Z,16.58
2023-05-04T08:25:56.582Z,16.63
2023-05-04T08:31:06.967Z,16.78
2023-05-04T08:36:13.618Z,16.89
2023-05-04T08:41:25.901Z,17.04
2023-05-04T08:46:36.965Z,17.19
2023-05-04T08:51:48.629Z,17.35
2023-05-04T08:56:57.773Z,17.49
2023-05-04T09:02:06.041Z,17.62
2023-05-04T09:07:13.560Z,17.69
2023-05-04T09:12:28.762Z,17.83
2023-05-04T09:17:47.533Z,17.97
2023-05-04T09:23:10.197Z,18.12
2023-05-04T09:28:17.651Z,18.26
2023-05-04T09:33:29.325Z,18.39
2023-05-04T09:38:41.633Z,18.54
2023-05-04T09:43:49.151Z,18.69
2023-05-04T09:48:58.296Z,18.86
2023-05-04T09:54:10.529Z,19.04
2023-05-04T09:59:19.271Z,19.19
2023-05-04T10:04:27.731Z,19.34
2023-05-04T10:09:38.896Z,19.47
2023-05-04T10:14:50.781Z,19.59
2023-05-04T10:20:00.234Z,19.72
2023-05-04T10:25:17.838Z,19.84
2023-05-04T10:30:26.306Z,19.95
2023-05-04T10:35:35.285Z,20.06
2023-05-04T10:40:43.771Z,20.19
2023-05-04T10:45:51.505Z,20.31
2023-05-04T10:50:58.331Z,20.41
2023-05-04T10:56:05.839Z,20.52
2023-05-04T11:01:16.200Z,20.69
2023-05-04T11:06:26.675Z,20.81
2023-05-04T11:11:38.599Z,20.97
2023-05-04T11:16:45.699Z,21.10
2023-05-04T11:21:53.820Z,21.20
2023-05-04T11:27:01.688Z,21.31
2023-05-04T11:32:09.151Z,21.43
2023-05-04T11:37:17.753Z,21.54
2023-05-04T11:42:25.383Z,21.68
2023-05-04T11:47:31.929Z,21.80
2023-05-04T11:52:43.931Z,21.93
2023-05-04T11:58:00.403Z,22.04
2023-05-04T12:03:05.942Z,22.14
2023-05-04T12:08:14.258Z,22.27
2023-05-04T12:13:18.412Z,22.40
2023-05-04T12:18:23.145Z,22.54
2023-05-04T12:23:25.872Z,22.65
2023-05-04T12:28:29.712Z,22.77
2023-05-04T12:33:34.558Z,22.87
2023-05-04T12:38:38.403Z,22.98
2023-05-04T12:43:41.377Z,23.10
2023-05-04T12:48:44.028Z,23.22
2023-05-04T12:53:48.096Z,23.35
2023-05-04T12:58:52.061Z,23.44
2023-05-04T13:03:55.650Z,23.50
2023-05-04T13:08:57.779Z,23.63
2023-05-04T13:14:03.638Z,23.72
2023-05-04T13:19:07.142Z,23.80
2023-05-04T13:24:09.701Z,23.86
2023-05-04T13:29:11.704Z,23.90
2023-05-04T13:34:19.443Z,23.95
2023-05-04T13:39:22.844Z,24.00
2023-05-04T13:44:25.398Z,24.04
2023-05-04T13:49:30.568Z,24.12
2023-05-04T13:54:34.428Z,24.23
2023-05-04T13:59:36.063Z,24.34
2023-05-04T14:04:39.901Z,24.46
2023-05-04T14:09:41.762Z,24.60
2023-05-04T14:14:43.346Z,24.77
2023-05-04T14:19:45.689Z,24.94
2023-05-04T14:24:48.861Z,25.07
2023-05-04T14:29:52.024Z,25.15
2023-05-04T14:35:12.188Z,25.22
2023-05-04T14:40:15.783Z,25.29
2023-05-04T14:45:17.756Z,25.33
2023-05-04T14:50:21.758Z,25.39
2023-05-04T14:55:23.385Z,25.43
2023-05-04T15:00:26.376Z,25.46
2023-05-04T15:05:28.428Z,25.52
2023-05-04T15:10:32.804Z,25.55
2023-05-04T15:15:40.785Z,25.60
2023-05-04T15:20:44.033Z,25.60
2023-05-04T15:25:45.859Z,25.56
2023-05-04T15:30:47.572Z,25.51
2023-05-04T15:35:49.264Z,25.46
2023-05-04T15:40:51.724Z,25.43
2023-05-04T15:45:53.654Z,25.44
2023-05-04T15:50:55.303Z,25.49
2023-05-04T15:55:57.019Z,25.51
2023-05-04T16:00:59.841Z,25.55
2023-05-04T16:06:02.889Z,25.59
2023-05-04T16:11:07.366Z,25.61
2023-05-04T16:16:11.883Z,25.66
2023-05-04T16:21:15.362Z,25.70
2023-05-04T16:26:17.460Z,25.79
2023-05-04T16:31:22.135Z,25.87
2023-05-04T16:36:25.370Z,25.91
2023-05-04T16:41:30.650Z,25.95
2023-05-04T16:46:32.271Z,25.97
2023-05-04T16:51:34.002Z,25.99
2023-05-04T16:56:37.011Z,25.98
2023-05-04T17:01:39.395Z,25.96
2023-05-04T17:06:41.047Z,25.91
2023-05-04T17:11:42.845Z,25.82
2023-05-04T17:16:44.488Z,25.71
2023-05-04T17:21:46.286Z,25.59
2023-05-04T17:26:48.351Z,25.45
2023-05-04T17:31:50.243Z,25.34
2023-05-04T17:36:55.631Z,25.20
2023-05-04T17:42:02.029Z,25.07
2023-05-04T17:47:09.727Z,24.93
2023-05-04T17:52:17.518Z,24.76
2023-05-04T17:57:25.598Z,24.59
2023-05-04T18:02:32.917Z,24.40
2023-05-04T18:07:41.780Z,24.19
2023-05-04T18:12:49.040Z,24.03
2023-05-04T18:17:55.817Z,23.86
2023-05-04T18:23:03.193Z,23.68
2023-05-04T18:28:10.802Z,23.50
2023-05-04T18:33:18.184Z,23.33
2023-05-04T18:38:28.226Z,23.14
2023-05-04T18:43:35.415Z,22.91
2023-05-04T18:48:42.170Z,22.67
2023-05-04T18:53:49.699Z,22.49
2023-05-04T18:58:58.615Z,22.35
2023-05-04T19:04:09.426Z,22.19
2023-05-04T19:09:18.570Z,22.03
2023-05-04T19:14:28.796Z,21.87
2023-05-04T19:19:40.551Z,21.74
2023-05-04T19:24:52.692Z,21.61
2023-05-04T19:29:59.558Z,21.48
2023-05-04T19:35:08.880Z,21.36
2023-05-04T19:40:15.726Z,21.23
2023-05-04T19:45:23.641Z,21.11
2023-05-04T19:50:31.622Z,21.00
2023-05-04T19:55:39.058Z,20.91
2023-05-04T20:00:47.521Z,20.83
2023-05-04T20:05:55.559Z,20.74
2023-05-04T20:11:02.898Z,20.66
2023-05-04T20:16:10.102Z,20.56
2023-05-04T20:21:17.462Z,20.48
2023-05-04T20:26:25.348Z,20.40
2023-05-04T20:31:31.978Z,20.30
2023-05-04T20:36:39.195Z,20.21
2023-05-04T20:41:45.913Z,20.13
2023-05-04T20:46:54.126Z,20.03
2023-05-04T20:52:00.452Z,19.92
2023-05-04T20:57:08.659Z,19.82
2023-05-04T21:02:12.548Z,19.70
2023-05-04T21:07:18.142Z,19.62
2023-05-04T21:12:22.140Z,19.54
2023-05-04T21:17:27.418Z,19.48
2023-05-04T21:22:30.954Z,19.42
2023-05-04T21:27:33.652Z,19.36
2023-05-04T21:32:35.955Z,19.30
2023-05-04T21:37:37.997Z,19.23
2023-05-04T21:42:40.494Z,19.15
2023-05-04T21:47:44.299Z,19.07
2023-05-04T21:52:49.375Z,19.00
2023-05-04T21:57:51.571Z,18.94
2023-05-04T22:02:55.113Z,18.88
2023-05-04T22:07:56.960Z,18.80
2023-05-04T22:12:59.461Z,18.75
2023-05-04T22:18:01.174Z,18.68
2023-05-04T22:23:04.312Z,18.62
2023-05-04T22:28:09.048Z,18.53
2023-05-04T22:33:15.341Z,18.41
2023-05-04T22:38:18.866Z,18.33
2023-05-04T22:43:20.772Z,18.26
2023-05-04T22:48:22.516Z,18.20
2023-05-04T22:53:24.214Z,18.15
2023-05-04T22:58:25.813Z,18.10
2023-05-04T23:03:28.571Z,18.06
2023-05-04T23:08:30.869Z,18.04
2023-05-04T23:13:32.453Z,18.03
2023-05-04T23:18:34.050Z,17.98
2023-05-04T23:23:35.951Z,17.95
2023-05-04T23:28:38.151Z,17.91
2023-05-04T23:33:40.197Z,17.84
2023-05-04T23:38:41.965Z,17.77
2023-05-04T23:43:43.953Z,17.72
2023-05-04T23:48:46.610Z,17.64
2023-05-04T23:53:48.283Z,17.54
2023-05-04T23:58:51.920Z,17.47
